createdAt,value
2018-04-06T00:00:03.834Z,0
2018-04-06T00:00:44.170Z,0
2018-04-06T00:01:24.582Z,0
2018-04-06T00:02:04.919Z,0
2018-04-06T00:02:45.358Z,0
2018-04-06T00:03:25.710Z,0
2018-04-06T00:04:06.123Z,0
2018-04-06T00:04:46.513Z,0
2018-04-06T00:05:26.873Z,0
2018-04-06T00:06:07.293Z,0
2018-04-06T00:06:47.810Z,0
2018-04-06T00:07:28.151Z,0
2018-04-06T00:08:08.551Z,0
2018-04-06T00:08:48.952Z,0
2018-04-06T00:09:29.387Z,0
2018-04-06T00:10:09.704Z,0
2018-04-06T00:10:50.160Z,0
2018-04-06T00:11:30.544Z,0
2018-04-06T00:12:10.931Z,0
2018-04-06T00:12:51.316Z,0
2018-04-06T00:13:31.763Z,0
2018-04-06T00:14:12.110Z,0
2018-04-06T00:14:52.549Z,0
2018-04-06T00:15:32.953Z,0
2018-04-06T00:16:13.304Z,0
2018-04-06T00:16:53.731Z,0
2018-04-06T00:17:34.068Z,0
2018-04-06T00:18:15.354Z,0
2018-04-06T00:18:55.839Z,0
2018-04-06T00:19:36.152Z,0
2018-04-06T00:20:16.636Z,0
2018-04-06T00:20:56.986Z,0
2018-04-06T00:21:37.366Z,0
2018-04-06T00:22:17.763Z,0
2018-04-06T00:22:58.206Z,0
2018-04-06T00:23:38.588Z,0
2018-04-06T00:24:19.066Z,0
2018-04-06T00:24:59.449Z,0
2018-04-06T00:25:39.757Z,0
2018-04-06T00:26:20.157Z,0
2018-04-06T00:27:00.597Z,0
2018-04-06T00:27:41.007Z,0
2018-04-06T00:28:21.416Z,0
2018-04-06T00:29:01.791Z,0
2018-04-06T00:29:42.200Z,0
2018-04-06T00:30:22.507Z,0
2018-04-06T00:31:02.932Z,0
2018-04-06T00:31:43.390Z,0
2018-04-06T00:32:23.720Z,0
2018-04-06T00:33:04.120Z,0
2018-04-06T00:33:44.582Z,0
2018-04-06T00:34:24.923Z,0
2018-04-06T00:35:05.379Z,0
2018-04-06T00:35:45.713Z,0
2018-04-06T00:36:26.153Z,0
2018-04-06T00:37:06.499Z,0
2018-04-06T00:37:46.903Z,0
2018-04-06T00:38:27.330Z,0
2018-04-06T00:39:07.725Z,0
2018-04-06T00:39:48.212Z,0
2018-04-06T00:40:28.585Z,0
2018-04-06T00:41:08.917Z,0
2018-04-06T00:41:49.384Z,0
2018-04-06T00:42:29.713Z,0
2018-04-06T00:43:10.179Z,0
2018-04-06T00:43:50.528Z,0
2018-04-06T00:44:30.941Z,0
2018-04-06T00:45:11.302Z,0
2018-04-06T00:45:51.672Z,0
2018-04-06T00:46:32.104Z,0
2018-04-06T00:47:12.466Z,0
2018-04-06T00:47:52.850Z,0
2018-04-06T00:48:33.244Z,0
2018-04-06T00:49:13.677Z,0
2018-04-06T00:49:54.049Z,0
2018-04-06T00:50:34.538Z,0
2018-04-06T00:51:14.829Z,0
2018-04-06T00:51:55.292Z,0
2018-04-06T00:52:35.676Z,0
2018-04-06T00:53:16.148Z,0
2018-04-06T00:53:56.468Z,0
2018-04-06T00:54:36.942Z,0
2018-04-06T00:55:17.266Z,0
2018-04-06T00:55:57.691Z,0
2018-04-06T00:56:38.154Z,0
2018-04-06T00:57:18.584Z,0
2018-04-06T00:57:58.950Z,0
2018-04-06T00:58:39.357Z,0
2018-04-06T00:59:19.780Z,0
2018-04-06T01:00:00.166Z,0
2018-04-06T01:00:40.586Z,0
2018-04-06T01:01:20.954Z,0
2018-04-06T01:02:01.296Z,0
2018-04-06T01:02:41.748Z,0
2018-04-06T01:03:22.165Z,0
2018-04-06T01:04:02.578Z,0
2018-04-06T01:04:42.925Z,0
2018-04-06T01:05:23.349Z,0
2018-04-06T01:06:03.779Z,0
2018-04-06T01:06:44.159Z,0
2018-04-06T01:07:24.553Z,0
2018-04-06T01:08:04.977Z,0
2018-04-06T01:08:45.286Z,0
2018-04-06T01:09:25.781Z,0
2018-04-06T01:10:06.109Z,0
2018-04-06T01:10:46.500Z,0
2018-04-06T01:11:26.916Z,0
2018-04-06T01:12:07.288Z,0
2018-04-06T01:12:47.734Z,0
2018-04-06T01:13:28.056Z,0
2018-04-06T01:14:08.443Z,0
2018-04-06T01:14:48.811Z,0
2018-04-06T01:15:29.256Z,0
2018-04-06T01:16:09.634Z,0
2018-04-06T01:16:50.035Z,0
2018-04-06T01:17:30.459Z,0
2018-04-06T01:18:10.857Z,0
2018-04-06T01:18:51.351Z,0
2018-04-06T01:19:31.666Z,0
2018-04-06T01:20:12.055Z,0
2018-04-06T01:20:52.455Z,0
2018-04-06T01:21:32.814Z,0
2018-04-06T01:22:13.279Z,0
2018-04-06T01:22:53.630Z,0
2018-04-06T01:23:34.029Z,0
2018-04-06T01:24:14.346Z,0
2018-04-06T01:24:54.882Z,0
2018-04-06T01:25:35.131Z,0
2018-04-06T01:26:15.594Z,0
2018-04-06T01:26:56.006Z,0
2018-04-06T01:27:36.383Z,0
2018-04-06T01:28:16.768Z,0
2018-04-06T01:28:57.106Z,0
2018-04-06T01:29:37.518Z,0
2018-04-06T01:30:17.925Z,0
2018-04-06T01:30:58.342Z,0
2018-04-06T01:31:38.721Z,0
2018-04-06T01:32:19.161Z,0
2018-04-06T01:32:59.521Z,0
2018-04-06T01:33:39.909Z,0
2018-04-06T01:34:20.288Z,0
2018-04-06T01:35:00.704Z,0
2018-04-06T01:35:41.114Z,0
2018-04-06T01:36:21.525Z,0
2018-04-06T01:37:01.923Z,0
2018-04-06T01:37:42.264Z,0
2018-04-06T01:38:22.669Z,0
2018-04-06T01:39:03.111Z,0
2018-04-06T01:39:43.546Z,0
2018-04-06T01:40:24.023Z,0
2018-04-06T01:41:04.401Z,0
2018-04-06T01:41:44.861Z,0
2018-04-06T01:42:25.272Z,0
2018-04-06T01:43:05.662Z,0
2018-04-06T01:43:46.060Z,0
2018-04-06T01:44:26.476Z,0
2018-04-06T01:45:06.860Z,0
2018-04-06T01:45:47.277Z,0
2018-04-06T01:46:27.674Z,0
2018-04-06T01:47:08.045Z,0
2018-04-06T01:47:48.350Z,0
2018-04-06T01:48:28.801Z,0
2018-04-06T01:49:09.190Z,0
2018-04-06T01:49:49.592Z,0
2018-04-06T01:50:29.974Z,0
2018-04-06T01:51:10.309Z,0
2018-04-06T01:51:50.737Z,0
2018-04-06T01:52:31.125Z,0
2018-04-06T01:53:11.578Z,0
2018-04-06T01:53:51.908Z,0
2018-04-06T01:54:32.274Z,0
2018-04-06T01:55:12.700Z,0
2018-04-06T01:55:53.073Z,0
2018-04-06T01:56:33.461Z,0
2018-04-06T01:57:13.924Z,0
2018-04-06T01:57:54.343Z,0
2018-04-06T01:58:34.706Z,0
2018-04-06T01:59:15.088Z,0
2018-04-06T01:59:55.513Z,0
2018-04-06T02:00:35.865Z,0
2018-04-06T02:01:16.271Z,0
2018-04-06T02:01:56.748Z,0
2018-04-06T02:02:37.087Z,0
2018-04-06T02:03:17.560Z,0
2018-04-06T02:03:57.974Z,0
2018-04-06T02:04:38.415Z,0
2018-04-06T02:05:18.706Z,0
2018-04-06T02:05:59.140Z,0
2018-04-06T02:06:39.547Z,0
2018-04-06T02:07:19.973Z,0
2018-04-06T02:08:00.344Z,0
2018-04-06T02:08:40.787Z,0
2018-04-06T02:09:21.174Z,0
2018-04-06T02:10:01.599Z,0
2018-04-06T02:10:41.976Z,0
2018-04-06T02:11:22.382Z,0
2018-04-06T02:12:02.824Z,0
2018-04-06T02:12:43.163Z,0
2018-04-06T02:13:23.536Z,0
2018-04-06T02:14:04.015Z,0
2018-04-06T02:14:44.403Z,0
2018-04-06T02:15:24.717Z,0
2018-04-06T02:16:05.195Z,0
2018-04-06T02:16:45.499Z,0
2018-04-06T02:17:26.019Z,0
2018-04-06T02:18:06.425Z,0
2018-04-06T02:18:46.827Z,0
2018-04-06T02:19:27.256Z,0
2018-04-06T02:20:07.651Z,0
2018-04-06T02:20:48.028Z,0
2018-04-06T02:21:28.476Z,0
2018-04-06T02:22:08.881Z,0
2018-04-06T02:22:49.270Z,0
2018-04-06T02:23:29.699Z,0
2018-04-06T02:24:10.074Z,0
2018-04-06T02:24:50.474Z,0
2018-04-06T02:25:30.845Z,0
2018-04-06T02:26:11.227Z,0
2018-04-06T02:26:51.611Z,0
2018-04-06T02:27:32.033Z,0
2018-04-06T02:28:12.352Z,0
2018-04-06T02:28:52.827Z,0
2018-04-06T02:29:33.132Z,0
2018-04-06T02:30:13.519Z,0
2018-04-06T02:30:53.963Z,0
2018-04-06T02:31:34.336Z,0
2018-04-06T02:32:14.696Z,0
2018-04-06T02:32:55.112Z,0
2018-04-06T02:33:35.489Z,0
2018-04-06T02:34:15.892Z,0
2018-04-06T02:34:56.408Z,0
2018-04-06T02:35:36.751Z,0
2018-04-06T02:36:17.147Z,0
2018-04-06T02:36:57.565Z,0
2018-04-06T02:37:37.973Z,0
2018-04-06T02:38:18.367Z,0
2018-04-06T02:38:58.666Z,0
2018-04-06T02:39:39.116Z,0
2018-04-06T02:40:19.466Z,0
2018-04-06T02:40:59.838Z,0
2018-04-06T02:41:40.242Z,0
2018-04-06T02:42:20.691Z,0
2018-04-06T02:43:01.091Z,0
2018-04-06T02:43:41.696Z,0
2018-04-06T02:44:21.986Z,0
2018-04-06T02:45:02.359Z,0
2018-04-06T02:45:42.716Z,0
2018-04-06T02:46:23.153Z,0
2018-04-06T02:47:03.553Z,0
2018-04-06T02:47:44.023Z,0
2018-04-06T02:48:24.390Z,0
2018-04-06T02:49:04.826Z,0
2018-04-06T02:49:45.181Z,0
2018-04-06T02:50:25.581Z,0
2018-04-06T02:51:05.932Z,0
2018-04-06T02:51:46.438Z,0
2018-04-06T02:52:26.768Z,0
2018-04-06T02:53:07.233Z,0
2018-04-06T02:53:47.594Z,0
2018-04-06T02:54:27.986Z,0
2018-04-06T02:55:08.325Z,0
2018-04-06T02:55:48.721Z,0
2018-04-06T02:56:29.116Z,0
2018-04-06T02:57:09.505Z,0
2018-04-06T02:57:49.888Z,0
2018-04-06T02:58:30.335Z,0
2018-04-06T02:59:10.665Z,0
2018-04-06T02:59:51.152Z,0
2018-04-06T03:00:31.505Z,0
2018-04-06T03:01:11.890Z,0
2018-04-06T03:01:52.328Z,0
2018-04-06T03:02:32.710Z,0
2018-04-06T03:03:13.132Z,0
2018-04-06T03:03:53.485Z,0
2018-04-06T03:04:33.937Z,0
2018-04-06T03:05:14.333Z,0
2018-04-06T03:05:54.748Z,0
2018-04-06T03:06:35.160Z,0
2018-04-06T03:07:15.484Z,0
2018-04-06T03:07:55.918Z,0
2018-04-06T03:08:36.354Z,0
2018-04-06T03:09:16.756Z,0
2018-04-06T03:09:57.088Z,0
2018-04-06T03:10:37.518Z,0
2018-04-06T03:11:17.894Z,0
2018-04-06T03:11:58.384Z,0
2018-04-06T03:12:38.721Z,0
2018-04-06T03:13:19.118Z,0
2018-04-06T03:13:59.487Z,0
2018-04-06T03:14:39.915Z,0
2018-04-06T03:15:20.343Z,0
2018-04-06T03:16:00.680Z,0
2018-04-06T03:16:41.108Z,0
2018-04-06T03:17:21.481Z,0
2018-04-06T03:18:01.820Z,0
2018-04-06T03:18:42.234Z,0
2018-04-06T03:19:22.607Z,0
2018-04-06T03:20:03.040Z,0
2018-04-06T03:20:43.451Z,0
2018-04-06T03:21:23.836Z,0
2018-04-06T03:22:04.291Z,0
2018-04-06T03:22:44.660Z,0
2018-04-06T03:23:25.044Z,0
2018-04-06T03:24:05.433Z,0
2018-04-06T03:24:45.823Z,0
2018-04-06T03:25:26.262Z,0
2018-04-06T03:26:06.681Z,0
2018-04-06T03:26:46.982Z,0
2018-04-06T03:27:27.427Z,0
2018-04-06T03:28:07.843Z,0
2018-04-06T03:28:48.212Z,0
2018-04-06T03:29:28.587Z,0
2018-04-06T03:30:09.077Z,0
2018-04-06T03:30:49.477Z,0
2018-04-06T03:31:29.921Z,0
2018-04-06T03:32:10.294Z,0
2018-04-06T03:32:50.645Z,0
2018-04-06T03:33:31.034Z,0
2018-04-06T03:34:11.399Z,0
2018-04-06T03:34:51.776Z,0
2018-04-06T03:35:32.194Z,0
2018-04-06T03:36:12.632Z,0
2018-04-06T03:36:52.966Z,0
2018-04-06T03:37:33.486Z,0
2018-04-06T03:38:13.854Z,0
2018-04-06T03:38:54.215Z,0
2018-04-06T03:39:34.620Z,0
2018-04-06T03:40:15.060Z,0
2018-04-06T03:40:55.391Z,0
2018-04-06T03:41:35.882Z,0
2018-04-06T03:42:16.274Z,0
2018-04-06T03:42:56.597Z,0
2018-04-06T03:43:37.031Z,0
2018-04-06T03:44:17.483Z,0
2018-04-06T03:44:57.811Z,0
2018-04-06T03:45:38.351Z,0
2018-04-06T03:46:18.702Z,0
2018-04-06T03:46:59.085Z,0
2018-04-06T03:47:39.543Z,0
2018-04-06T03:48:19.973Z,0
2018-04-06T03:49:00.395Z,0
2018-04-06T03:49:40.699Z,0
2018-04-06T03:50:21.105Z,0
2018-04-06T03:51:01.551Z,0
2018-04-06T03:51:41.932Z,0
2018-04-06T03:52:22.347Z,0
2018-04-06T03:53:02.699Z,0
2018-04-06T03:53:43.165Z,0
2018-04-06T03:54:23.499Z,0
2018-04-06T03:55:03.940Z,0
2018-04-06T03:55:44.338Z,0
2018-04-06T03:56:24.780Z,0
2018-04-06T03:57:05.088Z,0
2018-04-06T03:57:45.452Z,0
2018-04-06T03:58:25.893Z,0
2018-04-06T03:59:06.313Z,0
2018-04-06T03:59:46.771Z,0
2018-04-06T04:00:27.113Z,0
2018-04-06T04:01:07.577Z,0
2018-04-06T04:01:47.941Z,0
2018-04-06T04:41:43.674Z,12
2018-04-06T04:42:24.063Z,16
2018-04-06T04:43:04.468Z,16
2018-04-06T04:43:44.847Z,16
2018-04-06T04:44:25.336Z,16
2018-04-06T04:45:05.745Z,20
2018-04-06T04:45:46.070Z,20
2018-04-06T04:46:26.599Z,20
2018-04-06T04:47:07.016Z,24
2018-04-06T04:47:47.398Z,28
2018-04-06T04:48:27.831Z,32
2018-04-06T04:49:08.391Z,36
2018-04-06T04:49:48.663Z,40
2018-04-06T04:50:29.193Z,40
2018-04-06T04:51:09.549Z,44
2018-04-06T04:51:49.850Z,48
2018-04-06T04:52:30.462Z,52
2018-04-06T04:53:10.939Z,52
2018-04-06T04:53:51.252Z,60
2018-04-06T04:54:31.712Z,68
2018-04-06T04:55:12.234Z,72
2018-04-06T04:55:52.695Z,72
2018-04-06T04:56:33.189Z,80
2018-04-06T04:57:13.669Z,84
2018-04-06T04:57:54.159Z,92
2018-04-06T04:58:34.442Z,100
2018-04-06T04:59:14.870Z,108
2018-04-06T04:59:55.495Z,112
2018-04-06T05:00:35.832Z,124
2018-04-06T05:01:16.412Z,132
2018-04-06T05:01:56.725Z,140
2018-04-06T05:02:37.121Z,152
2018-04-06T05:03:18.182Z,164
2018-04-06T05:04:10.097Z,180
2018-04-06T05:04:50.629Z,188
2018-04-06T05:05:31.236Z,204
2018-04-06T05:06:11.900Z,224
2018-04-06T05:06:52.842Z,236
2018-04-06T05:07:33.333Z,248
2018-04-06T05:08:14.004Z,264
2018-04-06T05:08:54.576Z,280
2018-04-06T05:09:35.362Z,296
2018-04-06T05:10:15.686Z,316
2018-04-06T05:10:56.108Z,344
2018-04-06T05:11:36.617Z,372
2018-04-06T05:12:16.933Z,412
2018-04-06T05:12:57.399Z,432
2018-04-06T05:13:37.788Z,488
2018-04-06T05:14:18.136Z,496
2018-04-06T05:14:58.554Z,552
2018-04-06T05:15:38.995Z,576
2018-04-06T05:16:19.397Z,600
2018-04-06T05:16:59.749Z,628
2018-04-06T05:17:40.204Z,648
2018-04-06T05:18:20.567Z,708
2018-04-06T05:19:00.890Z,716
2018-04-06T05:19:41.808Z,748
2018-04-06T05:20:22.180Z,776
2018-04-06T05:21:02.614Z,804
2018-04-06T05:21:43.560Z,820
2018-04-06T05:22:25.937Z,840
2018-04-06T05:23:11.144Z,880
2018-04-06T05:23:54.090Z,980
2018-04-06T05:24:34.638Z,1100
2018-04-06T05:25:15.009Z,1240
2018-04-06T05:25:55.602Z,1336
2018-04-06T05:26:36.144Z,1604
2018-04-06T05:27:16.851Z,1812
2018-04-06T05:27:57.213Z,2068
2018-04-06T05:28:37.559Z,2180
2018-04-06T05:29:19.173Z,2160
2018-04-06T05:29:59.866Z,2092
2018-04-06T05:30:41.932Z,2204
2018-04-06T05:31:22.318Z,2272
2018-04-06T05:32:13.988Z,2308
2018-04-06T05:33:01.358Z,2500
2018-04-06T05:33:43.633Z,2624
2018-04-06T05:34:24.055Z,2840
2018-04-06T05:35:05.453Z,3040
2018-04-06T05:35:46.234Z,3172
2018-04-06T05:36:27.517Z,3172
2018-04-06T05:37:08.363Z,2976
2018-04-06T05:37:50.358Z,2852
2018-04-06T05:38:33.719Z,2820
2018-04-06T05:39:14.293Z,2980
2018-04-06T05:41:52.193Z,4008
2018-04-06T05:42:32.702Z,4524
2018-04-06T05:43:13.052Z,4648
2018-04-06T05:43:53.430Z,4376
2018-04-06T05:44:33.795Z,4496
2018-04-06T05:45:14.431Z,5048
2018-04-06T05:45:55.301Z,5544
2018-04-06T05:46:35.187Z,5756
2018-04-06T05:47:15.641Z,5916
2018-04-06T05:47:56.049Z,6416
2018-04-06T05:48:36.438Z,6784
2018-04-06T05:49:16.949Z,7208
2018-04-06T05:49:57.332Z,7520
2018-04-06T05:50:37.767Z,7708
2018-04-06T05:51:18.140Z,7744
2018-04-06T05:52:00.387Z,7692
2018-04-06T05:52:40.772Z,8360
2018-04-06T05:53:21.638Z,9148
2018-04-06T05:54:03.251Z,9268
2018-04-06T05:54:42.896Z,9456
2018-04-06T05:55:23.345Z,9688
2018-04-06T05:56:03.740Z,9944
2018-04-06T05:56:45.466Z,10280
2018-04-06T05:57:25.766Z,10784
2018-04-06T05:58:07.138Z,11360
2018-04-06T05:58:47.049Z,11360
2018-04-06T05:59:28.382Z,11360
2018-04-06T06:00:09.752Z,11584
2018-04-06T06:00:51.245Z,11904
2018-04-06T06:01:32.142Z,12576
2018-04-06T06:02:13.849Z,12800
2018-04-06T06:02:54.347Z,13344
2018-04-06T06:03:34.734Z,14208
2018-04-06T06:04:18.379Z,15360
2018-04-06T06:04:58.835Z,16672
2018-04-06T06:05:39.277Z,17312
2018-04-06T06:06:19.632Z,18048
2018-04-06T06:07:00.214Z,17760
2018-04-06T06:07:41.431Z,17536
2018-04-06T06:08:22.226Z,17440
2018-04-06T06:10:46.130Z,16224
2018-04-06T06:11:26.611Z,15360
2018-04-06T06:12:07.079Z,14496
2018-04-06T06:12:47.600Z,14048
2018-04-06T06:13:30.405Z,13664
2018-04-06T06:14:10.954Z,13536
2018-04-06T06:14:51.655Z,13120
2018-04-06T06:15:32.493Z,12864
2018-04-06T06:16:14.677Z,12608
2018-04-06T06:16:55.844Z,12576
2018-04-06T06:17:36.947Z,12768
2018-04-06T06:18:17.343Z,13120
2018-04-06T06:18:59.177Z,13280
2018-04-06T06:19:39.556Z,13216
2018-04-06T06:20:20.326Z,13216
2018-04-06T06:21:00.818Z,13216
2018-04-06T06:21:42.095Z,13344
2018-04-06T06:22:23.032Z,13600
2018-04-06T06:24:24.118Z,14208
2018-04-06T06:25:07.308Z,14240
2018-04-06T06:25:47.866Z,14272
2018-04-06T06:26:28.556Z,14016
2018-04-06T06:27:08.807Z,13984
2018-04-06T06:27:50.462Z,14208
2018-04-06T06:28:31.637Z,14048
2018-04-06T06:29:13.108Z,13792
2018-04-06T06:29:54.694Z,13536
2018-04-06T06:30:35.066Z,13192
2018-04-06T06:31:16.820Z,13128
2018-04-06T06:31:57.888Z,13244
2018-04-06T06:32:39.058Z,13600
2018-04-06T06:33:19.401Z,13664
2018-04-06T06:34:02.953Z,13188
2018-04-06T06:34:43.193Z,12904
2018-04-06T06:35:24.071Z,13192
2018-04-06T06:36:06.228Z,13792
2018-04-06T06:36:47.150Z,13388
2018-04-06T06:37:28.430Z,12916
2018-04-06T06:38:09.496Z,13036
2018-04-06T06:38:50.083Z,13920
2018-04-06T06:39:33.227Z,14208
2018-04-06T06:40:13.826Z,14016
2018-04-06T06:40:54.801Z,14048
2018-04-06T06:41:35.483Z,14272
2018-04-06T06:42:16.023Z,14560
2018-04-06T06:42:56.577Z,14592
2018-04-06T06:43:37.061Z,14880
2018-04-06T06:44:17.766Z,15040
2018-04-06T06:44:58.137Z,15232
2018-04-06T06:45:39.611Z,15104
2018-04-06T06:46:22.349Z,14816
2018-04-06T06:47:03.242Z,14496
2018-04-06T06:47:44.377Z,14432
2018-04-06T06:48:24.651Z,14720
2018-04-06T06:49:06.761Z,14976
2018-04-06T06:49:47.184Z,14688
2018-04-06T06:50:30.407Z,14752
2018-04-06T06:51:11.711Z,15104
2018-04-06T06:51:52.107Z,15520
2018-04-06T06:52:32.539Z,15808
2018-04-06T06:53:14.241Z,15776
2018-04-06T06:53:55.320Z,15776
2018-04-06T06:54:38.166Z,15904
2018-04-06T06:55:18.573Z,16288
2018-04-06T06:55:59.277Z,16128
2018-04-06T06:56:39.562Z,16096
2018-04-06T06:57:21.017Z,16064
2018-04-06T06:58:01.757Z,15872
2018-04-06T06:58:42.904Z,15808
2018-04-06T06:59:24.365Z,15680
2018-04-06T07:00:07.199Z,15456
2018-04-06T07:00:47.733Z,15200
2018-04-06T07:01:28.255Z,15136
2018-04-06T07:02:08.619Z,15200
2018-04-06T07:02:49.064Z,14816
2018-04-06T07:03:29.499Z,14400
2018-04-06T07:04:09.865Z,14496
2018-04-06T07:04:50.682Z,14624
2018-04-06T07:05:31.096Z,14400
2018-04-06T07:06:12.378Z,14048
2018-04-06T07:06:53.698Z,13856
2018-04-06T07:07:34.246Z,13492
2018-04-06T07:08:14.752Z,13952
2018-04-06T07:08:56.645Z,14080
2018-04-06T07:09:37.253Z,14336
2018-04-06T07:10:17.926Z,15008
2018-04-06T07:10:58.038Z,15040
2018-04-06T07:13:12.222Z,14400
2018-04-06T07:13:52.555Z,14084
2018-04-06T07:16:31.232Z,12496
2018-04-06T07:17:11.201Z,12576
2018-04-06T07:17:51.502Z,12324
2018-04-06T07:18:32.071Z,12224
2018-04-06T07:19:12.434Z,12036
2018-04-06T07:19:52.892Z,11812
2018-04-06T07:20:33.501Z,11616
2018-04-06T07:21:13.683Z,11752
2018-04-06T07:21:54.198Z,11528
2018-04-06T07:22:34.583Z,11260
2018-04-06T07:23:15.050Z,10932
2018-04-06T07:23:55.450Z,10760
2018-04-06T07:24:35.857Z,10636
2018-04-06T07:25:16.279Z,10620
2018-04-06T07:25:56.808Z,10512
2018-04-06T07:26:37.422Z,10304
2018-04-06T07:27:17.915Z,10416
2018-04-06T07:27:58.227Z,9316
2018-04-06T07:28:39.134Z,8920
2018-04-06T07:29:19.589Z,6872
2018-04-06T07:30:00.085Z,6244
2018-04-06T07:30:40.564Z,6112
2018-04-06T07:31:20.941Z,5948
2018-04-06T07:32:02.068Z,5868
2018-04-06T07:32:43.361Z,5716
2018-04-06T07:33:23.806Z,5592
2018-04-06T07:34:04.378Z,5444
2018-04-06T07:34:44.665Z,5336
2018-04-06T07:35:25.209Z,5340
2018-04-06T07:36:05.600Z,5204
2018-04-06T07:36:46.026Z,5212
2018-04-06T07:37:26.486Z,5144
2018-04-06T07:38:07.199Z,5040
2018-04-06T07:38:47.404Z,4984
2018-04-06T07:39:27.866Z,4868
2018-04-06T07:40:08.487Z,4816
2018-04-06T07:40:49.490Z,4720
2018-04-06T07:41:29.507Z,4672
2018-04-06T07:42:09.905Z,4576
2018-04-06T07:42:50.250Z,4500
2018-04-06T07:43:37.301Z,4428
2018-04-06T07:44:18.728Z,4604
2018-04-06T07:44:59.082Z,4336
2018-04-06T07:45:39.425Z,4264
2018-04-06T07:46:21.720Z,3904
2018-04-06T07:47:02.269Z,3860
2018-04-06T07:47:43.212Z,3768
2018-04-06T07:48:23.913Z,3768
2018-04-06T07:49:05.070Z,3604
2018-04-06T07:49:45.469Z,3540
2018-04-06T07:50:26.063Z,3444
2018-04-06T07:51:06.620Z,3408
2018-04-06T07:51:47.082Z,3364
2018-04-06T07:52:28.227Z,3352
2018-04-06T07:53:09.335Z,3296
2018-04-06T07:53:49.954Z,3196
2018-04-06T07:54:30.806Z,3224
2018-04-06T07:55:11.798Z,3180
2018-04-06T07:55:52.118Z,3152
2018-04-06T07:56:32.671Z,3072
2018-04-06T07:57:13.061Z,3064
2018-04-06T07:57:53.779Z,3020
2018-04-06T07:58:34.304Z,2972
2018-04-06T07:59:14.853Z,2952
2018-04-06T07:59:55.422Z,2912
2018-04-06T08:00:35.921Z,2888
2018-04-06T08:01:16.774Z,2848
2018-04-06T08:01:58.422Z,2808
2018-04-06T08:03:00.346Z,2744
2018-04-06T08:03:55.593Z,2692
2018-04-06T08:04:36.484Z,2656
2018-04-06T08:05:49.049Z,2620
2018-04-06T08:06:46.040Z,2588
2018-04-06T08:07:26.708Z,2560
2018-04-06T08:08:07.196Z,2552
2018-04-06T08:08:47.684Z,2572
2018-04-06T08:09:29.524Z,2512
2018-04-06T08:10:09.757Z,2512
2018-04-06T08:10:50.342Z,2504
2018-04-06T08:11:31.003Z,2484
2018-04-06T08:12:11.344Z,2464
2018-04-06T08:12:51.873Z,2452
2018-04-06T08:13:32.251Z,2436
2018-04-06T08:14:12.764Z,2420
2018-04-06T08:14:54.492Z,2412
2018-04-06T08:15:35.040Z,2412
2018-04-06T08:16:15.567Z,2372
2018-04-06T08:16:56.014Z,2388
2018-04-06T08:17:36.495Z,2360
2018-04-06T08:18:16.845Z,2352
2018-04-06T08:18:59.653Z,2348
2018-04-06T08:20:11.689Z,2332
2018-04-06T08:20:52.511Z,2320
2018-04-06T08:21:32.764Z,2352
2018-04-06T08:22:14.153Z,2312
2018-04-06T08:22:56.534Z,2300
2018-04-06T08:23:38.283Z,2304
2018-04-06T08:24:18.079Z,2300
2018-04-06T08:25:45.465Z,2276
2018-04-06T08:27:46.548Z,2272
2018-04-06T08:28:26.950Z,2268
2018-04-06T08:29:07.347Z,2272
2018-04-06T08:29:48.085Z,2276
2018-04-06T08:30:28.764Z,2260
2018-04-06T08:31:10.053Z,2248
2018-04-06T08:31:50.893Z,2268
2018-04-06T08:32:32.032Z,2256
2018-04-06T08:33:12.081Z,2252
2018-04-06T08:33:53.332Z,2248
2018-04-06T08:34:34.608Z,2252
2018-04-06T08:35:15.429Z,2232
2018-04-06T08:35:55.963Z,2236
2018-04-06T08:36:39.168Z,2240
2018-04-06T08:37:20.164Z,2204
2018-04-06T08:38:01.162Z,2204
2018-04-06T08:38:42.314Z,2204
2018-04-06T08:39:22.785Z,2204
2018-04-06T08:40:03.243Z,2188
2018-04-06T08:40:43.746Z,2180
2018-04-06T08:41:24.230Z,2184
2018-04-06T08:42:04.688Z,2176
2018-04-06T08:42:46.419Z,2164
2018-04-06T08:43:26.564Z,2156
2018-04-06T08:44:07.257Z,2180
2018-04-06T08:44:47.628Z,2172
2018-04-06T08:45:30.001Z,2152
2018-04-06T08:46:10.495Z,2164
2018-04-06T08:46:51.107Z,2144
2018-04-06T08:47:31.483Z,2112
2018-04-06T08:48:12.389Z,2124
2018-04-06T08:48:53.143Z,2120
2018-04-06T08:49:33.602Z,2108
2018-04-06T08:50:14.179Z,2104
2018-04-06T08:50:55.151Z,2116
2018-04-06T08:51:35.725Z,2116
2018-04-06T08:52:16.547Z,2088
2018-04-06T08:52:56.846Z,2084
2018-04-06T08:53:37.416Z,2088
2018-04-06T08:54:28.914Z,2088
2018-04-06T08:55:11.344Z,2068
2018-04-06T08:55:52.167Z,2076
2018-04-06T08:56:32.876Z,2068
2018-04-06T08:57:14.970Z,2064
2018-04-06T08:57:55.069Z,2048
2018-04-06T08:58:35.439Z,2040
2018-04-06T08:59:16.021Z,2036
2018-04-06T08:59:57.249Z,2028
2018-04-06T09:00:37.800Z,2032
2018-04-06T09:01:19.613Z,2016
2018-04-06T09:02:00.500Z,2012
2018-04-06T09:02:51.809Z,2016
2018-04-06T09:03:32.674Z,1996
2018-04-06T09:04:13.576Z,1992
2018-04-06T09:04:53.907Z,1996
2018-04-06T09:05:34.427Z,1984
2018-04-06T09:06:14.808Z,1972
2018-04-06T09:06:55.342Z,1988
2018-04-06T09:07:36.804Z,1980
2018-04-06T09:08:17.987Z,1964
2018-04-06T09:08:58.691Z,1956
2018-04-06T09:09:39.048Z,1964
2018-04-06T09:11:53.421Z,1936
2018-04-06T09:12:34.061Z,1936
2018-04-06T09:13:14.445Z,1932
2018-04-06T09:13:55.114Z,1936
2018-04-06T09:14:36.038Z,1932
2018-04-06T09:15:17.024Z,1924
2018-04-06T09:15:58.072Z,1920
2018-04-06T09:16:38.944Z,1908
2018-04-06T09:17:19.768Z,1900
2018-04-06T09:18:00.392Z,1904
2018-04-06T09:18:40.897Z,1904
2018-04-06T09:19:21.359Z,1896
2018-04-06T09:20:01.792Z,1888
2018-04-06T09:20:42.328Z,1872
2018-04-06T09:21:22.829Z,1872
2018-04-06T09:22:03.274Z,1876
2018-04-06T09:22:44.423Z,1876
2018-04-06T09:23:25.186Z,1868
2018-04-06T09:24:05.706Z,1864
2018-04-06T09:24:46.113Z,1888
2018-04-06T09:25:26.621Z,1852
2018-04-06T09:26:07.866Z,1868
2018-04-06T09:26:48.469Z,1864
2018-04-06T09:27:28.847Z,1856
2018-04-06T09:28:09.450Z,1856
2018-04-06T09:28:49.959Z,1860
2018-04-06T09:29:30.368Z,1844
2018-04-06T09:30:10.863Z,1840
2018-04-06T09:30:51.376Z,1844
2018-04-06T09:31:32.718Z,1836
2018-04-06T09:32:13.378Z,1836
2018-04-06T09:32:53.675Z,1812
2018-04-06T09:33:34.236Z,1832
2018-04-06T09:34:14.658Z,1824
2018-04-06T09:34:55.158Z,1800
2018-04-06T09:35:35.498Z,1816
2018-04-06T09:36:15.935Z,1808
2018-04-06T09:36:56.453Z,1800
2018-04-06T09:37:36.905Z,1804
2018-04-06T09:38:17.448Z,1804
2018-04-06T09:38:57.774Z,1808
2018-04-06T09:39:38.179Z,1804
2018-04-06T09:40:18.600Z,1804
2018-04-06T09:40:59.038Z,1808
2018-04-06T09:41:40.273Z,1792
2018-04-06T09:42:20.543Z,1808
2018-04-06T09:43:00.931Z,1796
2018-04-06T09:43:41.357Z,1788
2018-04-06T09:44:22.150Z,1784
2018-04-06T09:45:02.642Z,1780
2018-04-06T09:45:43.215Z,1772
2018-04-06T09:46:25.611Z,1788
2018-04-06T09:47:05.382Z,1772
2018-04-06T09:47:46.074Z,1780
2018-04-06T09:48:26.559Z,1772
2018-04-06T09:49:07.126Z,1776
2018-04-06T09:49:48.280Z,1764
2018-04-06T09:50:29.581Z,1760
2018-04-06T09:51:10.006Z,1764
2018-04-06T09:51:50.914Z,1744
2018-04-06T09:52:31.165Z,1760
2018-04-06T09:53:12.165Z,1768
2018-04-06T09:53:53.171Z,1760
2018-04-06T09:54:33.585Z,1756
2018-04-06T09:55:13.939Z,1744
2018-04-06T09:55:55.194Z,1756
2018-04-06T09:56:35.634Z,1752
2018-04-06T09:57:17.340Z,1748
2018-04-06T09:57:57.867Z,1756
2018-04-06T09:58:39.116Z,1756
2018-04-06T09:59:19.208Z,1744
2018-04-06T09:59:59.728Z,1732
2018-04-06T10:00:40.207Z,1724
2018-04-06T10:01:21.367Z,1728
2018-04-06T10:02:02.165Z,1732
2018-04-06T10:02:42.619Z,1740
2018-04-06T10:03:23.428Z,1740
2018-04-06T10:04:04.873Z,1732
2018-04-06T10:49:22.329Z,1572
2018-04-06T10:50:02.702Z,1572
2018-04-06T10:50:43.198Z,1568
2018-04-06T10:51:23.593Z,1564
2018-04-06T10:52:04.091Z,1560
2018-04-06T10:52:44.477Z,1564
2018-04-06T11:01:08.794Z,1532
2018-04-06T11:01:49.175Z,1528
2018-04-06T11:02:29.618Z,1540
2018-04-06T11:03:09.990Z,1528
2018-04-06T11:03:50.394Z,1528
2018-04-06T11:04:30.842Z,1524
2018-04-06T11:05:11.237Z,1516
2018-04-06T11:05:51.613Z,1520
2018-04-06T11:06:32.007Z,1516
2018-04-06T11:07:12.448Z,1512
2018-04-06T11:07:52.849Z,1512
2018-04-06T11:08:33.221Z,1516
2018-04-06T11:12:44.228Z,1504
2018-04-06T11:13:24.834Z,1500
2018-04-06T11:14:05.229Z,1500